createdAt,value
2023-05-14T00:01:39.321Z,3.58
2023-05-14T00:04:11.893Z,3.92
2023-05-14T00:06:41.873Z,3.83
2023-05-14T00:09:11.790Z,4.00
2023-05-14T00:11:41.937Z,3.55
2023-05-14T00:14:11.873Z,3.72
2023-05-14T00:16:41.870Z,3.72
2023-05-14T00:19:14.650Z,4.00
2023-05-14T00:21:44.683Z,3.80
2023-05-14T00:24:14.710Z,3.75
2023-05-14T00:26:44.725Z,3.72
2023-05-14T00:29:14.854Z,3.70
2023-05-14T00:31:44.901Z,3.58
2023-05-14T00:34:17.428Z,4.10
2023-05-14T00:37:07.032Z,3.55
2023-05-14T00:39:39.470Z,3.63
2023-05-14T00:42:16.144Z,3.65
2023-05-14T00:44:51.728Z,3.40
2023-05-14T00:47:35.115Z,3.65
2023-05-14T00:50:09.931Z,3.63
2023-05-14T00:52:43.601Z,3.42
2023-05-14T00:55:22.594Z,3.80
2023-05-14T00:57:53.738Z,3.75
2023-05-14T01:00:24.170Z,4.05
2023-05-14T01:02:54.389Z,3.63
2023-05-14T01:05:28.929Z,4.20
2023-05-14T01:08:05.643Z,4.07
2023-05-14T01:10:42.167Z,3.97
2023-05-14T01:13:16.863Z,3.97
2023-05-14T01:15:47.674Z,4.32
2023-05-14T01:20:59.136Z,4.20
2023-05-14T01:23:34.226Z,4.03
2023-05-14T01:26:10.109Z,4.07
2023-05-14T01:29:05.213Z,4.10
2023-05-14T01:32:01.430Z,3.63
2023-05-14T01:36:10.972Z,4.00
2023-05-14T01:39:19.823Z,3.88
2023-05-14T01:45:25.963Z,4.30
2023-05-14T01:47:56.501Z,4.40
2023-05-14T01:50:26.541Z,4.25
2023-05-14T01:52:57.003Z,3.80
2023-05-14T01:55:36.020Z,4.30
2023-05-14T01:58:09.803Z,3.65
2023-05-14T02:00:51.000Z,3.80
2023-05-14T02:03:20.866Z,3.78
2023-05-14T02:09:00.038Z,4.70
2023-05-14T02:20:52.287Z,4.18
2023-05-14T02:23:31.071Z,4.03
2023-05-14T02:26:09.799Z,3.95
2023-05-14T02:28:39.776Z,4.13
2023-05-14T02:31:09.615Z,4.10
2023-05-14T02:33:39.617Z,4.45
2023-05-14T02:36:12.294Z,4.22
2023-05-14T02:38:42.126Z,4.82
2023-05-14T02:41:12.065Z,4.53
2023-05-14T02:43:41.903Z,4.75
2023-05-14T02:46:11.748Z,3.92
2023-05-14T02:48:41.701Z,4.70
2023-05-14T02:51:16.360Z,4.43
2023-05-14T02:53:46.445Z,4.00
2023-05-14T02:56:16.665Z,4.53
2023-05-14T02:58:46.594Z,3.90
2023-05-14T03:01:18.980Z,3.92
2023-05-14T03:03:49.577Z,4.05
2023-05-14T03:06:22.580Z,4.20
2023-05-14T03:08:52.548Z,4.15
2023-05-14T03:11:22.430Z,4.20
2023-05-14T03:13:52.384Z,4.20
2023-05-14T03:16:22.314Z,4.15
2023-05-14T03:18:52.968Z,4.47
2023-05-14T03:21:25.621Z,4.18
2023-05-14T03:23:55.758Z,5.15
2023-05-14T03:26:25.639Z,4.60
2023-05-14T03:28:56.168Z,4.68
2023-05-14T03:31:26.281Z,4.68
2023-05-14T03:33:59.620Z,4.15
2023-05-14T03:36:32.178Z,4.45
2023-05-14T03:39:03.412Z,4.60
2023-05-14T03:41:33.363Z,4.97
2023-05-14T03:44:03.518Z,4.40
2023-05-14T03:46:33.305Z,4.60
2023-05-14T03:49:03.642Z,4.47
2023-05-14T03:51:36.208Z,4.35
2023-05-14T03:54:08.365Z,4.47
2023-05-14T03:56:38.285Z,4.80
2023-05-14T03:59:08.200Z,4.30
2023-05-14T04:01:38.080Z,4.05
2023-05-14T04:04:08.211Z,4.63
2023-05-14T04:06:40.698Z,4.20
2023-05-14T04:09:11.042Z,4.00
2023-05-14T04:11:40.853Z,4.03
2023-05-14T04:14:10.755Z,4.32
2023-05-14T04:16:40.871Z,3.67
2023-05-14T04:19:11.038Z,4.20
2023-05-14T04:21:43.712Z,4.57
2023-05-14T04:24:13.549Z,4.38
2023-05-14T04:26:43.364Z,5.03
2023-05-14T04:29:13.169Z,4.50
2023-05-14T04:31:43.402Z,4.32
2023-05-14T04:34:13.385Z,4.72
2023-05-14T04:36:45.912Z,4.72
2023-05-14T04:39:15.837Z,4.68
2023-05-14T04:41:45.708Z,4.22
2023-05-14T04:44:16.127Z,4.22
2023-05-14T04:46:45.914Z,4.55
2023-05-14T04:49:15.768Z,4.45
2023-05-14T04:51:48.377Z,5.00
2023-05-14T04:54:18.272Z,4.40
2023-05-14T04:56:48.089Z,4.70
2023-05-14T04:59:17.901Z,4.35
2023-05-14T05:01:48.070Z,4.30
2023-05-14T05:04:18.166Z,4.32
2023-05-14T05:06:50.952Z,4.15
2023-05-14T05:09:20.990Z,4.13
2023-05-14T05:11:50.727Z,4.15
2023-05-14T05:14:20.921Z,4.18
2023-05-14T05:16:50.876Z,4.63
2023-05-14T05:19:26.527Z,4.13
2023-05-14T05:22:04.819Z,3.78
2023-05-14T05:24:34.823Z,3.78
2023-05-14T05:27:05.667Z,3.70
2023-05-14T05:32:05.173Z,4.15
2023-05-14T05:34:35.112Z,3.85
2023-05-14T05:37:09.467Z,3.67
2023-05-14T05:39:39.383Z,4.05
2023-05-14T05:42:10.631Z,3.60
2023-05-14T05:44:40.487Z,3.50
2023-05-14T05:47:10.587Z,3.67
2023-05-14T05:49:40.318Z,3.50
2023-05-14T05:52:13.253Z,3.70
2023-05-14T05:54:43.007Z,3.80
2023-05-14T05:57:12.833Z,3.45
2023-05-14T05:59:42.649Z,3.65
2023-05-14T06:02:12.669Z,3.65
2023-05-14T06:04:42.557Z,3.78
2023-05-14T06:07:15.006Z,3.40
2023-05-14T06:09:44.819Z,3.33
2023-05-14T06:12:14.581Z,3.30
2023-05-14T06:14:44.434Z,3.42
2023-05-14T06:17:14.294Z,3.50
2023-05-14T06:19:44.117Z,3.42
2023-05-14T06:22:16.797Z,3.53
2023-05-14T06:24:46.597Z,3.45
2023-05-14T06:27:16.497Z,3.50
2023-05-14T06:32:31.394Z,3.65
2023-05-14T06:35:01.404Z,3.03
2023-05-14T06:37:34.417Z,3.70
2023-05-14T06:40:04.786Z,3.30
2023-05-14T06:42:34.855Z,3.38
2023-05-14T06:45:08.786Z,3.45
2023-05-14T06:47:38.920Z,2.92
2023-05-14T06:50:10.898Z,3.08
2023-05-14T06:52:44.165Z,2.85
2023-05-14T06:55:14.256Z,3.03
2023-05-14T06:57:44.825Z,2.95
2023-05-14T07:00:15.835Z,3.08
2023-05-14T07:02:46.012Z,2.90
2023-05-14T07:05:16.435Z,2.75
2023-05-14T07:07:49.140Z,3.10
2023-05-14T07:10:19.345Z,2.88
2023-05-14T07:12:49.516Z,3.13
2023-05-14T07:15:19.695Z,2.72
2023-05-14T07:17:49.743Z,3.13
2023-05-14T07:20:19.879Z,2.58
2023-05-14T07:22:52.524Z,2.50
2023-05-14T07:25:22.444Z,2.75
2023-05-14T07:27:52.666Z,2.65
2023-05-14T07:30:23.244Z,2.67
2023-05-14T07:32:53.655Z,2.65
2023-05-14T07:35:23.982Z,3.15
2023-05-14T07:37:56.859Z,3.10
2023-05-14T07:40:27.856Z,2.95
2023-05-14T07:42:57.967Z,2.80
2023-05-14T07:45:28.066Z,2.78
2023-05-14T07:47:58.468Z,2.70
2023-05-14T07:53:01.230Z,2.83
2023-05-14T07:55:31.685Z,2.55
2023-05-14T08:00:31.682Z,2.75
2023-05-14T08:03:01.946Z,2.60
2023-05-14T08:05:33.174Z,3.28
2023-05-14T08:08:05.905Z,2.88
2023-05-14T08:10:36.134Z,2.70
2023-05-14T08:13:06.507Z,2.97
2023-05-14T08:15:36.651Z,2.75
2023-05-14T08:18:07.101Z,2.70
2023-05-14T08:23:10.092Z,3.05
2023-05-14T08:25:40.212Z,2.95
2023-05-14T08:28:10.537Z,3.00
2023-05-14T08:30:40.673Z,2.88
2023-05-14T08:33:10.811Z,3.13
2023-05-14T08:35:40.912Z,2.85
2023-05-14T08:38:13.741Z,2.65
2023-05-14T08:40:44.588Z,3.03
2023-05-14T08:43:15.137Z,2.85
2023-05-14T08:48:19.077Z,2.60
2023-05-14T08:50:49.924Z,2.97
2023-05-14T08:53:22.670Z,2.90
2023-05-14T08:55:54.164Z,3.25
2023-05-14T08:58:25.921Z,2.88
2023-05-14T09:00:57.072Z,3.35
2023-05-14T09:03:27.369Z,3.25
2023-05-14T09:05:59.370Z,3.05
2023-05-14T09:08:33.579Z,3.22
2023-05-14T09:11:03.677Z,3.22
2023-05-14T09:13:34.084Z,2.75
2023-05-14T09:16:04.557Z,3.05
2023-05-14T09:18:34.743Z,2.72
2023-05-14T09:21:05.097Z,2.90
2023-05-14T09:26:08.743Z,2.97
2023-05-14T09:28:38.878Z,2.92
2023-05-14T09:31:08.949Z,3.15
2023-05-14T09:33:39.110Z,2.88
2023-05-14T09:36:09.890Z,2.95
2023-05-14T09:38:42.767Z,2.90
2023-05-14T09:41:13.015Z,2.90
2023-05-14T09:43:43.121Z,2.70
2023-05-14T09:46:13.530Z,3.10
2023-05-14T09:51:14.514Z,3.10
2023-05-14T09:53:48.095Z,3.22
2023-05-14T09:56:19.106Z,2.70
2023-05-14T09:58:49.199Z,3.22
2023-05-14T10:01:21.840Z,2.95
2023-05-14T10:03:52.750Z,2.92
2023-05-14T10:06:26.821Z,2.83
2023-05-14T10:09:00.466Z,3.53
2023-05-14T10:11:34.987Z,3.38
2023-05-14T10:14:08.144Z,2.92
2023-05-14T10:16:41.143Z,3.20
2023-05-14T10:19:13.279Z,2.60
2023-05-14T10:21:44.573Z,3.20
2023-05-14T10:24:17.610Z,3.10
2023-05-14T10:26:48.652Z,3.08
2023-05-14T10:29:18.723Z,3.22
2023-05-14T10:31:54.004Z,3.20
2023-05-14T10:34:37.997Z,2.95
2023-05-14T10:37:08.728Z,2.90
2023-05-14T10:40:01.080Z,3.05
2023-05-14T10:42:32.264Z,3.50
2023-05-14T10:45:06.678Z,3.10
2023-05-14T10:47:37.630Z,2.67
2023-05-14T10:50:09.719Z,2.83
2023-05-14T10:52:40.124Z,3.08
2023-05-14T10:57:46.589Z,3.50
2023-05-14T11:00:17.846Z,2.97
2023-05-14T11:02:48.202Z,3.20
2023-05-14T11:07:50.217Z,3.00
2023-05-14T11:10:26.137Z,3.30
2023-05-14T11:12:56.392Z,3.40
2023-05-14T11:15:28.749Z,3.10
2023-05-14T11:17:59.015Z,3.10
2023-05-14T11:20:29.338Z,2.95
2023-05-14T11:22:59.351Z,3.35
2023-05-14T11:25:31.962Z,2.92
2023-05-14T11:28:02.005Z,2.80
2023-05-14T11:30:34.540Z,3.08
2023-05-14T11:33:04.692Z,3.25
2023-05-14T11:35:35.421Z,2.90
2023-05-14T11:38:06.822Z,3.40
2023-05-14T11:40:40.566Z,3.22
2023-05-14T11:43:10.571Z,3.85
2023-05-14T11:45:40.695Z,3.35
2023-05-14T11:48:18.228Z,3.08
2023-05-14T11:50:49.886Z,3.00
2023-05-14T11:53:21.288Z,2.88
2023-05-14T11:55:54.402Z,3.22
2023-05-14T11:58:24.810Z,3.60
2023-05-14T12:03:26.793Z,2.97
2023-05-14T12:05:59.868Z,3.28
2023-05-14T12:08:31.467Z,3.33
2023-05-14T12:11:04.646Z,3.00
2023-05-14T12:13:35.024Z,2.97
2023-05-14T12:18:35.987Z,3.08
2023-05-14T12:23:38.401Z,3.13
2023-05-14T12:26:12.233Z,3.25
2023-05-14T12:28:44.755Z,3.10
2023-05-14T12:31:15.418Z,3.60
2023-05-14T12:37:12.747Z,2.90
2023-05-14T12:39:46.341Z,3.00
2023-05-14T12:42:51.917Z,2.78
2023-05-14T12:45:43.495Z,3.08
2023-05-14T12:48:15.258Z,3.10
2023-05-14T12:51:07.314Z,3.03
2023-05-14T12:53:55.018Z,3.45
2023-05-14T12:56:38.294Z,2.80
2023-05-14T12:59:29.378Z,3.40
2023-05-14T13:02:17.429Z,2.95
2023-05-14T13:05:12.042Z,3.15
2023-05-14T13:11:39.397Z,3.80
2023-05-14T13:14:11.899Z,3.22
2023-05-14T13:16:41.731Z,2.78
2023-05-14T13:19:11.819Z,3.13
2023-05-14T13:21:41.836Z,3.15
2023-05-14T13:24:11.878Z,3.00
2023-05-14T13:26:41.829Z,3.03
2023-05-14T13:29:14.367Z,3.42
2023-05-14T13:31:47.307Z,2.90
2023-05-14T13:34:17.631Z,3.00
2023-05-14T13:36:50.051Z,3.53
2023-05-14T13:39:23.034Z,3.33
2023-05-14T13:41:53.549Z,2.67
2023-05-14T13:46:55.880Z,3.53
2023-05-14T13:49:25.817Z,3.30
2023-05-14T13:51:55.721Z,3.10
2023-05-14T13:54:25.646Z,2.92
2023-05-14T13:56:55.577Z,3.03
2023-05-14T13:59:28.074Z,3.15
2023-05-14T14:01:58.024Z,3.40
2023-05-14T14:04:29.227Z,3.17
2023-05-14T14:06:59.082Z,2.90
2023-05-14T14:09:29.064Z,3.08
2023-05-14T14:11:58.864Z,2.70
2023-05-14T14:14:31.537Z,2.75
2023-05-14T14:17:01.363Z,3.22
2023-05-14T14:19:31.285Z,3.17
2023-05-14T14:22:01.291Z,2.83
2023-05-14T14:24:31.307Z,3.40
2023-05-14T14:27:02.436Z,3.17
2023-05-14T14:29:35.644Z,3.30
2023-05-14T14:32:05.620Z,3.47
2023-05-14T14:34:35.457Z,2.80
2023-05-14T14:37:05.281Z,2.92
2023-05-14T14:39:35.037Z,3.22
2023-05-14T14:42:04.994Z,3.30
2023-05-14T14:44:37.554Z,3.28
2023-05-14T14:47:08.115Z,3.20
2023-05-14T14:49:37.924Z,3.00
2023-05-14T14:52:08.203Z,3.60
2023-05-14T14:54:37.932Z,3.03
2023-05-14T14:57:08.536Z,2.97
2023-05-14T14:59:41.531Z,3.10
2023-05-14T15:02:15.017Z,2.85
2023-05-14T15:04:45.135Z,2.83
2023-05-14T15:07:16.146Z,2.95
2023-05-14T15:09:46.160Z,2.67
2023-05-14T15:12:17.258Z,3.13
2023-05-14T15:14:49.846Z,2.72
2023-05-14T15:17:19.707Z,2.80
2023-05-14T15:19:49.488Z,2.97
2023-05-14T15:22:19.367Z,2.55
2023-05-14T15:24:49.243Z,2.63
2023-05-14T15:27:19.183Z,2.97
2023-05-14T15:29:51.782Z,2.83
2023-05-14T15:32:21.821Z,2.50
2023-05-14T15:34:51.722Z,2.50
2023-05-14T15:37:21.800Z,2.50
2023-05-14T15:39:51.766Z,2.33
2023-05-14T15:42:22.578Z,2.65
2023-05-14T15:44:55.038Z,2.67
2023-05-14T15:47:24.993Z,2.45
2023-05-14T19:38:58.118Z,2.70
2023-05-14T19:41:28.125Z,3.03
2023-05-14T19:43:58.074Z,3.13
2023-05-14T19:46:28.342Z,3.13
2023-05-14T19:48:58.526Z,3.20
2023-05-14T19:51:28.997Z,2.75
2023-05-14T19:54:01.753Z,2.88
2023-05-14T19:56:31.848Z,3.00
2023-05-14T19:59:02.154Z,2.97
2023-05-14T20:01:32.602Z,2.95
2023-05-14T20:04:03.069Z,3.08
2023-05-14T20:06:34.669Z,3.35
2023-05-14T20:09:07.396Z,4.00
2023-05-14T20:11:37.668Z,3.80
2023-05-14T20:14:07.842Z,3.20
2023-05-14T20:16:38.130Z,3.63
2023-05-14T20:19:08.407Z,3.42
2023-05-14T20:21:38.741Z,3.10
2023-05-14T20:24:11.625Z,3.58
2023-05-14T20:26:41.809Z,3.72
2023-05-14T20:29:14.697Z,4.53
2023-05-14T20:31:44.883Z,3.40
2023-05-14T20:34:15.068Z,3.85
2023-05-14T20:36:45.315Z,3.22
2023-05-14T20:39:18.447Z,3.28
2023-05-14T20:41:48.275Z,3.70
2023-05-14T20:44:20.370Z,3.88
2023-05-14T20:46:50.749Z,4.40
2023-05-14T20:49:20.810Z,3.90
2023-05-14T20:51:51.009Z,3.50
2023-05-14T20:54:23.658Z,3.55
2023-05-14T20:56:53.943Z,3.65
2023-05-14T20:59:24.077Z,4.30
2023-05-14T21:01:54.210Z,4.05
2023-05-14T21:04:24.279Z,3.40
2023-05-14T21:06:55.233Z,3.45
2023-05-14T21:09:27.936Z,2.80
2023-05-14T21:11:57.998Z,3.60
2023-05-14T21:14:28.178Z,3.60
2023-05-14T21:16:58.211Z,2.95
2023-05-14T21:19:28.254Z,3.30
2023-05-14T21:21:58.500Z,3.00
2023-05-14T21:24:31.445Z,3.63
2023-05-14T21:27:01.736Z,3.90
2023-05-14T21:29:31.988Z,3.70
2023-05-14T21:32:02.236Z,3.70
2023-05-14T21:34:32.524Z,3.25
2023-05-14T21:37:03.169Z,3.55
2023-05-14T21:42:06.309Z,3.60
2023-05-14T21:44:37.239Z,2.90
2023-05-14T21:47:08.752Z,3.05
2023-05-14T21:49:39.244Z,3.40
2023-05-14T21:52:10.088Z,3.55
2023-05-14T21:54:45.785Z,3.20
2023-05-14T21:57:16.348Z,3.65
2023-05-14T21:59:49.148Z,3.67
2023-05-14T22:02:20.391Z,3.58
2023-05-14T22:04:53.774Z,3.20
2023-05-14T22:07:24.522Z,3.15
2023-05-14T22:09:57.968Z,3.40
2023-05-14T22:12:28.346Z,3.60
2023-05-14T22:14:58.966Z,3.70
2023-05-14T22:17:30.704Z,3.80
2023-05-14T22:20:01.393Z,3.30
2023-05-14T22:25:05.238Z,3.65
2023-05-14T22:30:50.800Z,3.80
2023-05-14T22:33:38.314Z,3.85
2023-05-14T22:36:10.817Z,3.30
2023-05-14T22:39:06.061Z,3.85
2023-05-14T22:42:00.141Z,3.70
2023-05-14T22:44:33.532Z,3.97
2023-05-14T22:50:21.211Z,3.45
2023-05-14T22:56:31.988Z,4.68
2023-05-14T22:59:45.628Z,4.72
2023-05-14T23:05:53.372Z,4.40
2023-05-14T23:08:57.738Z,4.32
2023-05-14T23:11:59.272Z,4.18
2023-05-14T23:25:09.822Z,4.25
2023-05-14T23:28:07.678Z,4.38
2023-05-14T23:31:52.042Z,3.78
2023-05-14T23:34:39.594Z,3.90
2023-05-14T23:37:47.633Z,4.22
2023-05-14T23:40:56.093Z,4.00
2023-05-14T23:44:07.034Z,3.80
2023-05-14T23:47:15.621Z,4.22
2023-05-14T23:50:24.121Z,4.03
2023-05-14T23:52:56.202Z,4.05
2023-05-14T23:55:52.920Z,4.10
